Time;durP1;ratioP1;P1;durP2;ratioP2;P2;SDS_P1;SDS_P2;PMS_P1;PMS_P2;Temp;Humidity;BMP_temperature;BMP_pressure;BME280_temperature;BME280_humidity;BME280_pressure;Samples;Min_cycle;Max_cycle;Signal;HPM_P1;HPM_P2
2023/09/12 00:01:06;;;;;;;27.98;23.92;;;;;;;18.73;100.00;101267.06;5116573;28;20027;-74
2023/09/12 00:03:32;;;;;;;28.02;22.55;;;;;;;18.66;100.00;101272.00;5116454;28;20035;-74
2023/09/12 00:05:59;;;;;;;28.17;22.55;;;;;;;18.68;100.00;101284.94;5116499;28;20047;-75
2023/09/12 00:08:25;;;;;;;28.58;23.02;;;;;;;18.60;100.00;101286.44;5116147;28;20026;-74
2023/09/12 00:11:00;;;;;;;28.38;22.02;;;;;;;18.54;100.00;101280.94;5116140;28;20023;-74
2023/09/12 00:13:25;;;;;;;25.83;22.45;;;;;;;18.38;100.00;101276.22;5116534;27;20027;-74
2023/09/12 00:15:50;;;;;;;26.45;22.00;;;;;;;18.46;100.00;101289.47;5116387;28;20091;-74
2023/09/12 00:18:16;;;;;;;25.58;21.73;;;;;;;18.30;100.00;101279.56;5116098;28;20032;-75
2023/09/12 00:20:41;;;;;;;31.45;23.10;;;;;;;18.11;100.00;101266.44;5116020;28;20430;-74
2023/09/12 00:23:06;;;;;;;28.88;22.88;;;;;;;18.19;100.00;101290.13;5116058;28;20062;-74
2023/09/12 00:25:32;;;;;;;30.30;23.90;;;;;;;18.08;100.00;101278.94;5116131;28;20483;-75
2023/09/12 00:27:57;;;;;;;28.63;23.25;;;;;;;18.11;100.00;101296.97;5116003;28;20080;-74
2023/09/12 00:30:22;;;;;;;27.42;22.70;;;;;;;18.09;100.00;101296.25;5116125;28;20137;-74
2023/09/12 00:32:47;;;;;;;26.45;21.33;;;;;;;18.01;100.00;101304.78;5115828;28;20491;-74
2023/09/12 00:35:13;;;;;;;32.15;23.27;;;;;;;17.94;100.00;101298.44;5115656;28;20027;-73
2023/09/12 00:37:38;;;;;;;27.30;22.33;;;;;;;17.88;100.00;101298.97;5115834;28;20028;-74
2023/09/12 00:40:05;;;;;;;27.45;22.48;;;;;;;17.75;100.00;101288.75;5115558;28;20028;-75
2023/09/12 00:42:30;;;;;;;27.33;22.00;;;;;;;17.80;100.00;101304.00;5115747;27;20080;-74
2023/09/12 00:44:55;;;;;;;27.08;21.08;;;;;;;17.67;100.00;101288.53;5115840;28;20019;-75
2023/09/12 00:47:22;;;;;;;26.00;21.10;;;;;;;17.67;100.00;101299.81;5115640;28;20027;-75
2023/09/12 00:49:50;;;;;;;28.40;23.48;;;;;;;17.70;100.00;101298.78;5115499;28;20032;-74
2023/09/12 00:52:16;;;;;;;32.03;21.77;;;;;;;17.58;100.00;101281.50;5115527;28;20026;-74
2023/09/12 00:54:42;;;;;;;29.73;21.13;;;;;;;17.50;100.00;101276.91;5115360;28;20023;-75
2023/09/12 00:57:07;;;;;;;26.55;19.83;;;;;;;17.57;100.00;101296.34;5115300;28;20043;-74
2023/09/12 00:59:33;;;;;;;26.95;22.00;;;;;;;17.42;100.00;101276.75;5113703;28;20036;-74
2023/09/12 01:02:00;;;;;;;27.08;22.60;;;;;;;17.48;100.00;101289.28;5115452;28;20365;-74
2023/09/12 01:04:27;;;;;;;29.77;23.20;;;;;;;17.39;100.00;101285.66;5115222;28;20024;-74
2023/09/12 01:06:52;;;;;;;26.30;21.92;;;;;;;17.39;100.00;101271.78;5115152;28;20020;-74
2023/09/12 01:09:18;;;;;;;29.20;24.00;;;;;;;17.35;100.00;101267.78;5114984;28;20031;-74
2023/09/12 01:11:44;;;;;;;31.40;22.10;;;;;;;17.34;100.00;101274.78;5115287;28;20024;-74
2023/09/12 01:14:09;;;;;;;27.08;21.52;;;;;;;17.41;100.00;101275.09;5115104;28;20088;-74
2023/09/12 01:16:34;;;;;;;25.15;21.05;;;;;;;17.34;100.00;101276.56;5115071;28;20106;-74
2023/09/12 01:19:00;;;;;;;27.83;20.73;;;;;;;17.22;100.00;101265.38;5114823;28;20075;-74
2023/09/12 01:21:44;;;;;;;26.45;21.60;;;;;;;17.30;100.00;101281.19;5115146;28;20030;-74
2023/09/12 01:24:20;;;;;;;27.70;22.75;;;;;;;17.27;100.00;101280.66;5114789;28;20518;-74
2023/09/12 01:26:48;;;;;;;24.33;20.60;;;;;;;17.19;100.00;101284.72;5114698;28;20035;-74
2023/09/12 01:29:15;;;;;;;27.58;23.00;;;;;;;17.07;100.00;101272.69;5114806;28;20027;-75
2023/09/12 01:31:43;;;;;;;30.50;22.33;;;;;;;17.12;100.00;101282.78;5114628;28;20050;-75
2023/09/12 01:34:12;;;;;;;21.95;19.38;;;;;;;16.85;100.00;101247.56;5114634;28;20495;-76
2023/09/12 01:36:38;;;;;;;29.13;20.70;;;;;;;16.91;100.00;101254.91;5114603;28;20031;-75
2023/09/12 01:39:03;;;;;;;26.83;20.73;;;;;;;16.94;100.00;101260.81;5114516;28;20038;-74
2023/09/12 01:41:32;;;;;;;24.70;21.02;;;;;;;17.03;100.00;101279.13;5114712;28;20530;-75
2023/09/12 01:43:59;;;;;;;27.33;21.00;;;;;;;16.92;100.00;101263.56;5113235;28;20628;-76
2023/09/12 01:46:26;;;;;;;27.10;20.70;;;;;;;16.98;100.00;101262.19;5114346;28;20039;-74
2023/09/12 01:48:55;;;;;;;23.80;19.10;;;;;;;16.74;100.00;101231.97;5114404;28;20042;-74
2023/09/12 01:51:22;;;;;;;23.67;20.33;;;;;;;16.97;100.00;101265.75;5114292;28;20042;-73
2023/09/12 01:53:49;;;;;;;23.85;19.95;;;;;;;16.86;100.00;101264.03;5114359;28;20068;-74
2023/09/12 01:56:15;;;;;;;21.27;18.20;;;;;;;16.93;100.00;101270.41;5114225;28;20023;-74
2023/09/12 01:58:40;;;;;;;27.63;21.55;;;;;;;16.90;100.00;101263.66;5114114;28;20028;-73
2023/09/12 02:01:06;;;;;;;20.95;18.42;;;;;;;16.88;100.00;101265.56;5114117;28;20037;-74
2023/09/12 02:03:31;;;;;;;24.92;20.95;;;;;;;16.84;100.00;101258.13;5112947;28;20070;-74
2023/09/12 02:05:56;;;;;;;26.52;21.30;;;;;;;16.92;100.00;101272.19;5114270;28;20524;-74
2023/09/12 02:08:22;;;;;;;26.73;20.48;;;;;;;16.84;100.00;101261.56;5113916;28;20099;-74
2023/09/12 02:10:47;;;;;;;28.45;21.90;;;;;;;16.88;100.00;101262.13;5114294;28;20028;-75
2023/09/12 02:13:12;;;;;;;26.48;20.35;;;;;;;16.89;100.00;101274.22;5113763;28;20433;-74
2023/09/12 02:15:38;;;;;;;23.98;20.48;;;;;;;16.86;100.00;101257.03;5113909;28;20023;-74
2023/09/12 02:18:03;;;;;;;25.92;21.85;;;;;;;16.85;100.00;101259.78;5113516;28;20069;-74
2023/09/12 02:20:29;;;;;;;27.15;21.30;;;;;;;16.86;100.00;101264.03;5113700;28;20081;-74
2023/09/12 02:22:54;;;;;;;23.50;20.50;;;;;;;16.79;100.00;101258.50;5113902;28;20030;-74
2023/09/12 02:25:19;;;;;;;27.73;21.50;;;;;;;16.87;100.00;101269.13;5113704;28;20028;-74
2023/09/12 02:27:45;;;;;;;26.60;22.67;;;;;;;16.84;100.00;101258.97;5146218;27;20031;-74
2023/09/12 02:30:13;;;;;;;29.60;22.70;;;;;;;16.86;100.00;101277.09;5113603;28;20039;-76
2023/09/12 02:32:38;;;;;;;26.63;21.23;;;;;;;16.83;100.00;101277.34;5113611;28;20073;-74
2023/09/12 02:35:04;;;;;;;28.52;23.35;;;;;;;16.79;100.00;101265.50;5113644;28;20031;-74
2023/09/12 02:37:29;;;;;;;25.23;21.77;;;;;;;16.87;100.00;101281.34;5113555;28;20034;-73
2023/09/12 02:39:54;;;;;;;27.75;22.92;;;;;;;16.84;100.00;101284.22;5113458;28;20180;-74
2023/09/12 02:42:20;;;;;;;27.15;21.58;;;;;;;16.83;100.00;101279.97;5113261;28;20039;-75
2023/09/12 02:44:45;;;;;;;31.15;24.00;;;;;;;16.79;100.00;101265.50;5113519;28;20024;-74
2023/09/12 02:47:11;;;;;;;26.23;22.05;;;;;;;16.73;100.00;101255.59;5113373;28;20467;-76
2023/09/12 02:49:36;;;;;;;24.08;18.88;;;;;;;16.76;100.00;101276.19;5113404;28;20028;-75
2023/09/12 02:52:01;;;;;;;24.95;18.10;;;;;;;16.71;100.00;101273.94;5113356;28;20042;-75
2023/09/12 02:54:26;;;;;;;21.73;18.05;;;;;;;16.70;100.00;101277.50;5113358;28;20054;-75
2023/09/12 02:56:52;;;;;;;21.77;18.23;;;;;;;16.66;100.00;101276.09;5113198;28;20504;-74
2023/09/12 02:59:18;;;;;;;22.38;16.42;;;;;;;16.51;100.00;101264.28;5113163;28;20101;-73
2023/09/12 03:01:44;;;;;;;22.20;16.00;;;;;;;16.51;100.00;101272.09;5113400;28;20023;-74
2023/09/12 03:04:09;;;;;;;20.27;16.60;;;;;;;16.43;100.00;101267.53;5111977;28;20208;-74
2023/09/12 03:06:35;;;;;;;20.80;16.35;;;;;;;16.44;100.00;101269.19;5113276;28;20027;-74
2023/09/12 03:09:00;;;;;;;21.30;15.40;;;;;;;16.18;100.00;101244.38;5112982;28;20027;-75
2023/09/12 03:11:27;;;;;;;21.48;15.20;;;;;;;16.25;100.00;101264.59;5113021;28;20046;-75
2023/09/12 03:13:53;;;;;;;16.98;14.98;;;;;;;16.30;100.00;101285.06;5112969;28;20038;-74
2023/09/12 03:16:18;;;;;;;20.27;16.05;;;;;;;16.25;100.00;101282.03;5113065;28;20024;-74
2023/09/12 03:18:43;;;;;;;18.55;15.35;;;;;;;16.21;100.00;101278.81;5113098;28;20080;-75
2023/09/12 03:21:09;;;;;;;17.05;14.40;;;;;;;16.03;100.00;101251.63;5113148;28;20028;-74
2023/09/12 03:23:34;;;;;;;19.23;14.48;;;;;;;16.17;100.00;101268.78;5112916;28;20024;-74
2023/09/12 03:26:05;;;;;;;19.98;16.92;;;;;;;16.14;100.00;101261.22;5111490;28;20130;-75
2023/09/12 03:28:30;;;;;;;23.48;18.95;;;;;;;16.10;100.00;101251.97;5112816;28;20052;-74
2023/09/12 03:31:11;;;;;;;20.45;17.58;;;;;;;16.10;100.00;101255.38;5115783;28;20047;-74
2023/09/12 03:33:37;;;;;;;20.60;16.05;;;;;;;16.02;100.00;101256.00;5117077;28;20372;-74
2023/09/12 03:36:03;;;;;;;23.17;17.60;;;;;;;16.05;100.00;101260.97;5117042;28;20023;-74
2023/09/12 03:38:28;;;;;;;22.27;17.00;;;;;;;15.91;100.00;101243.00;5116900;28;20059;-75
2023/09/12 03:40:53;;;;;;;18.80;16.13;;;;;;;15.95;100.00;101254.00;5117105;28;20432;-74
2023/09/12 03:43:19;;;;;;;19.48;17.38;;;;;;;16.03;100.00;101257.69;5116915;28;20432;-73
2023/09/12 03:45:44;;;;;;;24.05;18.98;;;;;;;16.03;100.00;101265.50;5115003;28;20129;-74
2023/09/12 03:48:09;;;;;;;21.45;17.92;;;;;;;15.99;100.00;101255.41;5116930;28;20016;-74
2023/09/12 03:50:35;;;;;;;22.48;17.90;;;;;;;15.97;100.00;101257.31;5116753;28;20472;-74
2023/09/12 03:53:00;;;;;;;20.73;16.92;;;;;;;15.97;100.00;101249.50;5114973;28;20035;-74
2023/09/12 03:55:25;;;;;;;21.90;17.95;;;;;;;15.90;100.00;101236.13;5116733;28;20096;-74
2023/09/12 03:57:51;;;;;;;21.90;17.42;;;;;;;15.89;100.00;101244.06;5098045;28;20035;-75
2023/09/12 04:00:16;;;;;;;23.85;18.05;;;;;;;15.95;100.00;101254.84;5116421;28;20019;-74
2023/09/12 04:02:41;;;;;;;24.00;17.80;;;;;;;15.89;100.00;101242.28;5116659;28;20084;-74
2023/09/12 04:05:07;;;;;;;21.95;18.25;;;;;;;15.98;100.00;101258.97;5116287;28;20023;-74
2023/09/12 04:07:32;;;;;;;24.17;18.20;;;;;;;15.95;100.00;101259.22;5116442;28;20055;-74
2023/09/12 04:09:58;;;;;;;24.85;20.42;;;;;;;15.93;100.00;101246.31;5116487;28;20031;-73
2023/09/12 04:12:23;;;;;;;25.33;19.52;;;;;;;15.88;100.00;101232.00;5116610;28;20076;-74
2023/09/12 04:14:51;;;;;;;23.52;19.75;;;;;;;16.04;100.00;101243.69;5116503;28;20063;-74
2023/09/12 04:17:16;;;;;;;26.33;21.25;;;;;;;16.09;100.00;101250.31;5116115;27;20476;-74
2023/09/12 04:19:41;;;;;;;25.48;20.00;;;;;;;16.05;100.00;101234.09;5115799;28;20048;-75
2023/09/12 04:22:06;;;;;;;27.33;21.70;;;;;;;16.20;100.00;101237.25;5116164;28;20020;-74
2023/09/12 04:24:32;;;;;;;33.75;25.65;;;;;;;16.31;100.00;101245.84;5116156;28;20031;-74
2023/09/12 04:26:57;;;;;;;34.85;26.55;;;;;;;16.34;100.00;101240.41;5115933;28;20024;-73
2023/09/12 04:29:22;;;;;;;38.60;29.27;;;;;;;16.42;100.00;101234.59;5115844;27;20131;-75
2023/09/12 04:31:48;;;;;;;38.47;27.63;;;;;;;16.38;100.00;101225.34;5116154;28;20103;-74
2023/09/12 04:34:13;;;;;;;40.00;28.98;;;;;;;16.47;100.00;101226.38;5115808;28;20024;-75
2023/09/12 04:36:39;;;;;;;35.67;27.55;;;;;;;16.43;100.00;101219.78;5115919;28;20107;-75
2023/09/12 04:39:05;;;;;;;35.72;26.25;;;;;;;16.60;100.00;101247.88;5115687;28;20031;-75
2023/09/12 04:41:30;;;;;;;32.97;25.50;;;;;;;16.60;100.00;101253.91;5115311;28;20050;-74
2023/09/12 04:43:56;;;;;;;34.50;24.90;;;;;;;16.46;100.00;101220.34;5115673;28;20028;-75
2023/09/12 04:46:22;;;;;;;31.25;23.75;;;;;;;16.67;100.00;101256.88;5113781;28;20043;-75
2023/09/12 04:48:47;;;;;;;33.85;24.98;;;;;;;16.68;100.00;101252.47;5115569;28;20027;-76
2023/09/12 04:51:12;;;;;;;30.08;23.85;;;;;;;16.61;100.00;101233.88;5115568;28;20028;-75
2023/09/12 04:53:39;;;;;;;28.65;22.60;;;;;;;16.68;100.00;101242.06;5115513;28;20447;-75
2023/09/12 04:56:06;;;;;;;30.05;23.13;;;;;;;16.68;100.00;101247.25;5115392;28;20476;-76
2023/09/12 04:59:52;;;;;;;;;;;;;;;;;;;;;
2023/09/12 05:02:21;;;;;;;29.15;22.85;;;;;;;16.06;100.00;101152.38;5012168;28;20545;-80
2023/09/12 05:06:04;;;;;;;;;;;;;;;;;;;;;
2023/09/12 05:08:30;;;;;;;29.45;23.45;;;;;;;15.86;100.00;101127.13;4993598;28;20177;-76
2023/09/12 05:11:04;;;;;;;31.48;22.48;;;;;;;16.33;100.00;101199.66;5012530;28;20546;-76
2023/09/12 05:13:33;;;;;;;30.92;24.65;;;;;;;16.26;100.00;101197.69;5028799;28;20519;-76
2023/09/12 05:15:58;;;;;;;30.42;23.85;;;;;;;16.63;100.00;101266.72;5012665;28;20562;-75
2023/09/12 05:18:24;;;;;;;30.88;23.50;;;;;;;16.61;100.00;101266.00;5012396;28;20132;-75
2023/09/12 05:21:13;;;;;;;30.27;23.70;;;;;;;16.45;100.00;101249.16;5012573;28;20036;-79
2023/09/12 05:24:02;;;;;;;27.80;23.02;;;;;;;16.52;100.00;101264.19;5012111;28;20037;-79
2023/09/12 05:26:39;;;;;;;29.25;23.33;;;;;;;15.69;100.00;101125.84;5012480;28;20065;-80
2023/09/12 05:29:14;;;;;;;28.05;22.70;;;;;;;15.72;100.00;101134.25;5012176;28;20422;-79
2023/09/12 05:31:39;;;;;;;30.20;23.00;;;;;;;15.75;100.00;101128.00;5012228;28;20170;-75
2023/09/12 05:34:04;;;;;;;33.58;24.50;;;;;;;16.67;100.00;101262.09;5047477;28;20060;-76
2023/09/12 05:36:30;;;;;;;30.77;24.00;;;;;;;16.72;100.00;101259.97;5052042;28;20036;-75
2023/09/12 05:38:55;;;;;;;29.20;23.17;;;;;;;16.77;100.00;101259.59;5111539;28;20548;-75
2023/09/12 05:41:20;;;;;;;28.83;22.45;;;;;;;16.82;100.00;101257.44;5114567;28;20035;-77
2023/09/12 05:43:46;;;;;;;28.25;22.65;;;;;;;16.78;100.00;101238.59;5114461;28;20020;-78
2023/09/12 05:46:11;;;;;;;28.83;23.08;;;;;;;16.77;100.00;101236.94;5114650;28;20016;-76
2023/09/12 05:48:36;;;;;;;30.10;22.73;;;;;;;16.87;100.00;101256.09;5114317;28;20030;-76
2023/09/12 05:51:02;;;;;;;28.67;23.17;;;;;;;16.81;100.00;101242.72;5114186;28;20098;-76
2023/09/12 05:53:27;;;;;;;28.55;23.20;;;;;;;16.76;100.00;101239.69;5112424;28;20092;-76
2023/09/12 05:55:53;;;;;;;29.83;23.50;;;;;;;16.78;100.00;101237.75;5114300;28;20027;-75
2023/09/12 05:58:18;;;;;;;32.67;23.58;;;;;;;16.73;100.00;101235.53;5114171;28;20035;-73
2023/09/12 06:03:14;;;;;;;28.25;22.70;;;;;;;16.67;100.00;101216.94;5132977;27;20043;-71
2023/09/12 06:05:39;;;;;;;29.27;23.33;;;;;;;16.93;100.00;101257.38;5135023;27;20030;-73
2023/09/12 06:08:05;;;;;;;30.83;23.00;;;;;;;16.80;100.00;101239.28;5134428;27;20106;-72
2023/09/12 06:10:30;;;;;;;29.77;23.27;;;;;;;16.96;100.00;101266.72;5134593;27;20380;-73
2023/09/12 06:12:55;;;;;;;28.70;22.02;;;;;;;16.96;100.00;101266.72;5134300;27;20027;-74
2023/09/12 06:15:24;;;;;;;28.52;21.90;;;;;;;16.86;100.00;101261.44;5134392;27;20059;-73
2023/09/12 06:17:52;;;;;;;25.38;21.95;;;;;;;16.96;100.00;101287.59;5134097;27;20019;-73
2023/09/12 06:20:17;;;;;;;25.73;21.65;;;;;;;16.97;100.00;101278.81;5132876;27;20035;-73
2023/09/12 06:22:43;;;;;;;26.92;21.70;;;;;;;16.95;100.00;101281.56;5133954;27;20391;-75
2023/09/12 06:25:08;;;;;;;29.35;22.08;;;;;;;16.98;100.00;101290.91;5134519;27;20090;-73
2023/09/12 06:27:34;;;;;;;27.70;22.58;;;;;;;16.88;100.00;101270.78;5134402;27;20027;-71
2023/09/12 06:29:59;;;;;;;29.33;23.17;;;;;;;16.95;100.00;101285.94;5134266;27;20360;-75
2023/09/12 06:32:25;;;;;;;32.55;24.95;;;;;;;17.02;100.00;101282.72;5134231;27;20027;-73
2023/09/12 06:34:50;;;;;;;29.67;22.33;;;;;;;17.00;100.00;101271.53;5134000;27;20109;-72
2023/09/12 06:37:15;;;;;;;30.05;23.92;;;;;;;17.08;100.00;101278.75;5134005;27;20087;-72
2023/09/12 06:39:41;;;;;;;28.65;23.77;;;;;;;17.09;100.00;101272.56;5134048;27;20456;-73
2023/09/12 06:42:06;;;;;;;30.95;23.80;;;;;;;17.11;100.00;101271.50;5134026;27;20036;-72
2023/09/12 06:44:31;;;;;;;29.27;23.90;;;;;;;17.10;100.00;101263.78;5134114;27;20020;-72
2023/09/12 06:46:57;;;;;;;32.28;25.15;;;;;;;17.25;100.00;101274.72;5134034;27;20023;-73
2023/09/12 06:49:22;;;;;;;29.40;23.38;;;;;;;17.27;100.00;101276.25;5133812;27;20031;-74
2023/09/12 06:51:47;;;;;;;33.60;25.13;;;;;;;17.31;100.00;101288.09;5133820;27;20102;-72
2023/09/12 06:54:13;;;;;;;34.15;26.50;;;;;;;17.30;100.00;101278.59;5133656;27;20037;-72
2023/09/12 06:56:38;;;;;;;35.45;26.73;;;;;;;17.39;100.00;101290.88;5133941;27;20034;-72
2023/09/12 06:59:04;;;;;;;34.50;25.83;;;;;;;17.44;100.00;101287.91;5133839;27;20033;-70
2023/09/12 07:01:30;;;;;;;33.47;26.52;;;;;;;17.49;100.00;101286.53;5117418;27;20412;-72
2023/09/12 07:03:56;;;;;;;32.90;27.08;;;;;;;17.52;100.00;101287.25;5114019;28;20027;-74
2023/09/12 07:06:21;;;;;;;31.80;26.05;;;;;;;17.58;100.00;101289.31;5116468;27;20034;-74
2023/09/12 07:08:47;;;;;;;34.95;25.85;;;;;;;17.56;100.00;101281.63;5134196;27;20035;-76
2023/09/12 07:11:12;;;;;;;31.15;25.15;;;;;;;17.74;100.00;101300.97;5133931;27;20426;-74
2023/09/12 07:13:37;;;;;;;33.95;26.00;;;;;;;17.74;100.00;101284.47;5134284;28;20030;-74
2023/09/12 07:16:04;;;;;;;33.33;26.48;;;;;;;17.92;100.00;101295.97;5133591;28;20019;-74
2023/09/12 07:18:32;;;;;;;35.33;26.98;;;;;;;17.93;100.00;101288.94;5133587;27;20119;-71
2023/09/12 07:20:59;;;;;;;36.08;26.42;;;;;;;18.09;100.00;101298.88;5132033;28;20035;-72
2023/09/12 07:23:24;;;;;;;34.30;26.83;;;;;;;18.28;100.00;101302.38;5132012;28;20023;-73
2023/09/12 07:25:50;;;;;;;35.55;27.73;;;;;;;18.47;100.00;101301.56;5133552;28;20035;-73
2023/09/12 07:28:16;;;;;;;33.92;26.98;;;;;;;18.62;100.00;101302.00;5133540;27;20031;-73
2023/09/12 07:30:41;;;;;;;36.58;27.75;;;;;;;18.75;100.00;101302.59;5132981;27;20115;-73
2023/09/12 07:33:06;;;;;;;33.25;26.35;;;;;;;18.85;100.00;101307.81;5133126;27;20023;-72
2023/09/12 07:35:32;;;;;;;34.92;26.42;;;;;;;18.96;100.00;101302.44;5133973;27;20064;-71
2023/09/12 07:37:57;;;;;;;35.38;24.98;;;;;;;19.04;100.00;101306.97;5133853;27;20352;-72
2023/09/12 07:40:22;;;;;;;34.70;25.17;;;;;;;19.01;100.00;101289.75;5132010;28;20027;-73
2023/09/12 07:42:48;;;;;;;35.53;26.38;;;;;;;19.19;100.00;101305.59;5133377;28;20029;-72
2023/09/12 07:45:26;;;;;;;35.42;25.52;;;;;;;19.35;100.00;101291.88;5133017;28;20030;-73
2023/09/12 07:47:51;;;;;;;32.03;24.42;;;;;;;19.66;100.00;101303.81;5131838;28;20046;-73
2023/09/12 07:50:16;;;;;;;31.80;24.17;;;;;;;19.74;100.00;101292.59;5133053;27;20039;-72
2023/09/12 07:52:48;;;;;;;28.77;22.50;;;;;;;19.87;100.00;101303.59;5133117;27;20055;-74
2023/09/12 07:55:13;;;;;;;26.38;21.95;;;;;;;19.99;100.00;101317.34;5133487;27;20022;-74
2023/09/12 07:57:38;;;;;;;25.42;21.30;;;;;;;19.99;100.00;101310.28;5133361;27;20035;-72
2023/09/12 08:00:10;;;;;;;25.10;20.80;;;;;;;20.05;100.00;101322.78;5133185;27;20038;-73
2023/09/12 08:02:36;;;;;;;26.50;20.75;;;;;;;20.09;100.00;101305.00;5133100;27;20236;-74
2023/09/12 08:05:01;;;;;;;26.65;21.15;;;;;;;20.14;100.00;101312.41;5131706;28;20075;-73
2023/09/12 08:07:26;;;;;;;26.08;21.83;;;;;;;20.19;100.00;101297.91;5132962;28;20388;-73
2023/09/12 08:09:59;;;;;;;27.30;21.77;;;;;;;20.23;100.00;101301.88;5133134;28;20024;-74
2023/09/12 08:12:27;;;;;;;23.63;19.85;;;;;;;20.31;100.00;101322.13;5131364;28;20046;-75
2023/09/12 08:14:54;;;;;;;26.30;20.27;;;;;;;20.30;100.00;101323.91;5132747;27;20077;-74
2023/09/12 08:17:20;;;;;;;22.45;18.13;;;;;;;20.32;100.00;101323.75;5135784;27;20480;-73
2023/09/12 08:19:45;;;;;;;23.50;18.55;;;;;;;20.30;100.00;101326.53;5136706;27;20066;-73
2023/09/12 08:22:11;;;;;;;24.95;19.80;;;;;;;20.29;100.00;101329.31;5136597;27;20102;-73
2023/09/12 08:24:38;;;;;;;21.83;17.77;;;;;;;20.16;100.00;101306.06;5136835;27;20027;-74
2023/09/12 08:27:04;;;;;;;21.85;17.42;;;;;;;20.26;100.00;101322.56;5136726;27;20023;-72
2023/09/12 08:29:31;;;;;;;24.30;19.15;;;;;;;20.45;100.00;101342.66;5136548;27;20029;-72
2023/09/12 08:31:56;;;;;;;25.58;20.15;;;;;;;20.55;100.00;101346.03;5136353;27;20364;-72
2023/09/12 08:34:22;;;;;;;19.05;14.77;;;;;;;20.84;100.00;101358.06;5136438;27;20021;-71
2023/09/12 08:36:47;;;;;;;25.20;18.88;;;;;;;20.80;100.00;101335.75;5136300;27;20031;-71
2023/09/12 08:39:16;;;;;;;19.73;16.00;;;;;;;20.98;100.00;101357.56;5136626;27;20030;-71
2023/09/12 08:41:46;;;;;;;24.30;17.35;;;;;;;21.04;100.00;101358.75;5136483;27;20035;-71
2023/09/12 08:44:12;;;;;;;14.60;11.07;;;;;;;21.08;100.00;101347.81;5136135;27;20049;-71
2023/09/12 08:46:41;;;;;;;18.55;13.93;;;;;;;21.18;100.00;101364.28;5136099;27;20027;-71
2023/09/12 08:49:07;;;;;;;15.13;11.70;;;;;;;21.30;100.00;101356.19;5136131;27;20460;-73
2023/09/12 08:51:33;;;;;;;17.15;13.43;;;;;;;21.45;100.00;101371.25;5136082;27;20475;-71
2023/09/12 08:53:59;;;;;;;16.27;12.52;;;;;;;21.39;100.00;101355.28;5136253;27;20088;-71
2023/09/12 08:56:24;;;;;;;20.40;15.82;;;;;;;21.36;100.00;101376.59;5135918;27;20023;-71
2023/09/12 08:58:50;;;;;;;20.25;17.20;;;;;;;21.30;100.00;101372.78;5136130;27;20030;-71
2023/09/12 09:01:18;;;;;;;18.55;14.75;;;;;;;21.37;100.00;101381.72;5135472;27;20035;-73
2023/09/12 09:03:44;;;;;;;20.02;15.27;;;;;;;21.39;100.00;101366.59;5135849;27;20482;-74
2023/09/12 09:06:15;;;;;;;22.77;18.67;;;;;;;21.23;100.00;101353.31;5135592;27;20499;-73
2023/09/12 09:08:42;;;;;;;22.95;18.92;;;;;;;21.31;100.00;101349.97;5135919;27;20031;-71
2023/09/12 09:11:08;;;;;;;23.05;16.13;;;;;;;21.47;100.00;101374.56;5134120;27;20069;-73
2023/09/12 09:13:33;;;;;;;22.60;16.67;;;;;;;21.55;100.00;101380.84;5135716;27;20061;-72
2023/09/12 09:16:19;;;;;;;19.77;15.48;;;;;;;21.54;100.00;101366.88;5135550;27;20042;-73
2023/09/12 09:19:00;;;;;;;18.90;13.85;;;;;;;21.63;100.00;101378.25;5135597;27;20132;-72
2023/09/12 09:21:31;;;;;;;16.20;12.70;;;;;;;21.62;100.00;101371.34;5135790;27;20037;-73
2023/09/12 09:23:59;;;;;;;20.95;15.57;;;;;;;21.66;100.00;101384.03;5135582;27;20035;-74
2023/09/12 09:26:45;;;;;;;19.65;14.50;;;;;;;21.74;100.00;101370.94;5135434;27;20094;-72
2023/09/12 09:29:22;;;;;;;17.40;12.10;;;;;;;21.78;100.00;101350.41;5134849;27;20023;-74
2023/09/12 09:31:54;;;;;;;19.17;13.88;;;;;;;21.74;100.00;101339.41;5135284;27;20062;-74
2023/09/12 09:34:21;;;;;;;19.25;13.40;;;;;;;21.76;100.00;101350.56;5135484;27;20068;-73
2023/09/12 09:36:51;;;;;;;18.02;13.80;;;;;;;21.83;100.00;101352.56;5135214;27;20032;-72
2023/09/12 09:39:18;;;;;;;17.95;12.57;;;;;;;21.87;100.00;101344.22;5135193;27;20403;-73
2023/09/12 09:41:50;;;;;;;22.48;15.63;;;;;;;21.90;99.94;101345.69;5134873;27;20019;-72
2023/09/12 09:44:16;;;;;;;20.13;12.93;;;;;;;21.99;100.00;101339.50;5135294;27;20375;-72
2023/09/12 09:46:46;;;;;;;23.70;16.83;;;;;;;22.07;100.00;101336.09;5135067;27;20027;-72
2023/09/12 09:49:14;;;;;;;22.63;15.27;;;;;;;22.10;99.86;101326.06;5133560;27;20031;-74
2023/09/12 09:51:43;;;;;;;14.63;11.13;;;;;;;22.47;99.63;101344.09;5134984;27;20046;-73
2023/09/12 09:54:09;;;;;;;17.25;11.98;;;;;;;22.61;97.15;101329.47;5134814;27;20023;-73
2023/09/12 09:57:02;;;;;;;18.00;12.07;;;;;;;22.71;96.30;101318.78;5134630;27;20020;-72
2023/09/12 09:59:28;;;;;;;17.45;11.48;;;;;;;22.92;90.24;101336.78;5131521;27;20062;-72
2023/09/12 10:01:59;;;;;;;19.92;13.10;;;;;;;22.91;91.31;101328.06;5134619;27;20078;-73
2023/09/12 10:04:27;;;;;;;22.48;15.95;;;;;;;22.90;88.96;101324.59;5134700;27;20479;-72
2023/09/12 10:06:56;;;;;;;18.92;12.90;;;;;;;23.03;90.05;101336.47;5134573;27;20474;-72
2023/09/12 10:09:25;;;;;;;14.80;7.88;;;;;;;23.07;90.84;101322.78;5134296;27;20030;-71
2023/09/12 10:11:52;;;;;;;16.77;11.40;;;;;;;23.09;92.97;101338.41;5134677;27;20026;-73
2023/09/12 10:14:22;;;;;;;15.30;9.93;;;;;;;23.05;90.26;101331.84;5134713;27;20120;-73
2023/09/12 10:19:27;;;;;;;14.02;10.68;;;;;;;23.05;89.97;101339.75;5125912;22;20459;-73
2023/09/12 10:22:03;;;;;;;15.35;10.90;;;;;;;23.02;89.68;101332.19;5030340;28;20443;-71
2023/09/12 10:24:30;;;;;;;17.63;11.48;;;;;;;22.90;88.68;101315.88;5030250;28;20082;-73
2023/09/12 10:27:03;;;;;;;17.80;12.30;;;;;;;22.76;87.60;101291.00;5030115;28;20022;-73
2023/09/12 10:29:29;;;;;;;18.27;13.15;;;;;;;22.95;88.23;101321.47;5030219;28;20068;-73
2023/09/12 10:31:55;;;;;;;16.73;11.55;;;;;;;23.00;88.96;101315.69;5030088;28;20061;-73
2023/09/12 10:34:24;;;;;;;18.17;10.55;;;;;;;22.99;84.12;101321.94;5030190;28;20022;-74
2023/09/12 10:36:50;;;;;;;16.00;10.68;;;;;;;23.07;85.42;101319.31;5030124;28;20071;-72
2023/09/12 10:39:15;;;;;;;19.40;11.82;;;;;;;23.10;89.85;101316.34;5029767;28;20017;-73
2023/09/12 10:41:41;;;;;;;19.30;12.88;;;;;;;23.15;88.82;101322.78;5030059;28;20348;-73
2023/09/12 10:44:14;;;;;;;16.35;10.25;;;;;;;23.14;84.87;101322.94;5030022;28;20474;-73
2023/09/12 10:46:41;;;;;;;12.98;8.52;;;;;;;23.09;86.15;101298.91;5050673;28;20022;-74
2023/09/12 10:49:11;;;;;;;14.00;8.60;;;;;;;23.14;84.41;101300.06;5113782;28;20049;-74
2023/09/12 10:51:40;;;;;;;15.48;11.35;;;;;;;23.26;83.06;101318.97;5113971;28;20035;-75
2023/09/12 10:54:10;;;;;;;14.38;10.63;;;;;;;23.06;82.99;101305.31;5113367;28;20548;-73
2023/09/12 10:56:35;;;;;;;12.30;8.48;;;;;;;23.32;86.44;101315.66;5113268;28;20024;-74
2023/09/12 10:59:06;;;;;;;9.63;6.20;;;;;;;23.39;82.60;101321.06;5113186;28;20096;-73
2023/09/12 11:01:37;;;;;;;;;;;;;;;23.51;87.86;101316.28;5113575;28;20110;-74
2023/09/12 11:04:30;;;;;;;15.65;12.48;;;;;;;23.54;87.41;101321.22;5113385;28;19919;-73
2023/09/12 11:06:56;;;;;;;15.50;11.45;;;;;;;23.53;83.68;101330.13;5110021;28;20472;-75
2023/09/12 11:09:25;;;;;;;17.95;12.55;;;;;;;23.60;84.36;101323.22;5112914;28;20034;-75
2023/09/12 11:11:53;;;;;;;16.20;10.18;;;;;;;23.33;82.95;101269.88;5113184;28;20049;-75
2023/09/12 11:14:19;;;;;;;15.55;10.95;;;;;;;23.72;83.73;101316.56;5113002;28;20030;-76